Terminal Aerodrome Forecast
Issued by NWS Wilmington, OH

Current Version | Previous Version | Graphics & Text | Print | Product List | Glossary On
Versions: 1 2 3 4 5 6 7 8 9 10 11 12 13 14 15 16 17 18 19 20 21 22 23 24 25 26 27 28 29
000
FTUS41 KILN 290900 AAA
TAFILN
TAF AMD
KILN 290916Z 2909/3006 17014KT P6SM SCT080 OVC120
      TEMPO 2910/2912 5SM -SHRA BKN080
     FM291700 21016G26KT P6SM VCSH BKN018 OVC120
     FM292000 26017G27KT P6SM OVC009
     FM300100 29015G23KT P6SM OVC012=

USA.gov is the U.S. government's official web portal to all federal, state and local government web resources and services.